createdAt,value
2023-09-15T00:00:12.927Z,64.21
2023-09-15T00:02:15.819Z,64.52
2023-09-15T00:04:19.006Z,64.31
2023-09-15T00:06:21.897Z,64.43
2023-09-15T00:08:24.620Z,64.57
2023-09-15T00:10:28.703Z,64.51
2023-09-15T00:12:31.610Z,64.93
2023-09-15T00:14:35.615Z,64.88
2023-09-15T00:16:39.297Z,64.80
2023-09-15T00:18:43.521Z,64.85
2023-09-15T00:20:46.574Z,65.24
2023-09-15T00:22:50.946Z,65.14
2023-09-15T00:24:53.701Z,65.11
2023-09-15T00:26:57.665Z,65.18
2023-09-15T00:29:01.083Z,65.21
2023-09-15T00:31:03.873Z,65.01
2023-09-15T00:33:06.690Z,65.06
2023-09-15T00:35:08.617Z,64.92
2023-09-15T00:37:11.385Z,64.88
2023-09-15T00:39:14.124Z,64.86
2023-09-15T00:41:16.910Z,64.66
2023-09-15T00:43:21.050Z,64.58
2023-09-15T00:45:24.198Z,64.31
2023-09-15T00:47:26.874Z,64.66
2023-09-15T00:49:29.552Z,64.74
2023-09-15T00:51:31.844Z,64.58
2023-09-15T00:53:36.127Z,64.59
2023-09-15T00:55:39.807Z,64.37
2023-09-15T00:57:42.911Z,64.28
2023-09-15T00:59:47.078Z,64.21
2023-09-15T01:01:49.970Z,64.08
2023-09-15T01:03:54.127Z,64.38
2023-09-15T01:05:59.842Z,64.43
2023-09-15T01:08:03.740Z,64.51
2023-09-15T01:10:07.404Z,64.39
2023-09-15T01:12:10.276Z,64.35
2023-09-15T01:14:13.486Z,64.41
2023-09-15T01:16:24.847Z,64.22
2023-09-15T01:18:32.457Z,64.28
2023-09-15T01:21:10.125Z,64.09
2023-09-15T01:23:40.004Z,64.22
2023-09-15T01:26:05.751Z,64.25
2023-09-15T01:28:29.445Z,64.56
2023-09-15T01:30:34.415Z,63.96
2023-09-15T01:32:38.119Z,63.85
2023-09-15T01:34:47.495Z,64.05
2023-09-15T01:36:52.229Z,64.25
2023-09-15T01:38:54.927Z,64.19
2023-09-15T01:40:57.620Z,63.97
2023-09-15T01:43:00.369Z,64.05
2023-09-15T01:45:03.163Z,63.90
2023-09-15T01:47:10.195Z,64.26
2023-09-15T01:49:14.093Z,64.43
2023-09-15T01:51:17.072Z,64.45
2023-09-15T01:53:21.305Z,64.56
2023-09-15T01:55:24.832Z,64.92
2023-09-15T01:57:27.596Z,64.88
2023-09-15T01:59:30.623Z,64.92
2023-09-15T02:01:33.548Z,64.89
2023-09-15T02:03:37.678Z,64.80
2023-09-15T02:05:40.602Z,64.95
2023-09-15T02:07:42.337Z,64.81
2023-09-15T02:09:45.836Z,64.80
2023-09-15T02:11:48.527Z,64.13
2023-09-15T02:13:50.468Z,64.42
2023-09-15T02:15:54.122Z,64.94
2023-09-15T02:18:00.285Z,65.26
2023-09-15T02:20:12.977Z,65.54
2023-09-15T02:22:15.816Z,65.53
2023-09-15T02:24:18.516Z,65.89
2023-09-15T02:26:22.273Z,65.77
2023-09-15T02:28:24.980Z,65.51
2023-09-15T02:30:27.692Z,65.21
2023-09-15T02:32:30.361Z,65.34
2023-09-15T02:34:33.390Z,65.28
2023-09-15T02:36:37.440Z,64.90
2023-09-15T02:38:39.172Z,65.42
2023-09-15T02:40:42.030Z,65.31
2023-09-15T02:42:44.883Z,64.57
2023-09-15T02:44:47.727Z,65.57
2023-09-15T02:46:50.478Z,66.04
2023-09-15T02:48:54.067Z,65.97
2023-09-15T02:50:58.121Z,65.90
2023-09-15T02:53:03.068Z,65.90
2023-09-15T02:55:06.632Z,66.11
2023-09-15T02:57:08.362Z,66.37
2023-09-15T02:59:11.610Z,66.06
2023-09-15T03:01:15.543Z,66.22
2023-09-15T03:03:25.839Z,66.14
2023-09-15T03:05:28.802Z,66.39
2023-09-15T03:07:32.978Z,66.54
2023-09-15T03:09:37.006Z,66.23
2023-09-15T03:11:39.626Z,66.26
2023-09-15T03:13:42.504Z,66.14
2023-09-15T03:15:45.515Z,65.94
2023-09-15T03:17:48.369Z,66.01
2023-09-15T03:19:51.135Z,65.92
2023-09-15T03:21:55.048Z,66.12
2023-09-15T03:23:57.760Z,66.32
2023-09-15T03:26:02.887Z,66.61
2023-09-15T03:28:04.848Z,66.62
2023-09-15T03:30:09.133Z,66.83
2023-09-15T03:32:11.784Z,66.33
2023-09-15T03:34:14.513Z,66.11
2023-09-15T03:36:17.803Z,66.10
2023-09-15T03:38:20.499Z,65.82
2023-09-15T03:40:23.417Z,65.84
2023-09-15T03:42:27.519Z,65.67
2023-09-15T03:44:30.202Z,65.47
2023-09-15T03:46:33.650Z,65.63
2023-09-15T03:48:36.493Z,65.41
2023-09-15T03:50:39.167Z,65.33
2023-09-15T03:52:42.148Z,65.30
2023-09-15T03:54:44.923Z,65.14
2023-09-15T03:56:47.626Z,65.26
2023-09-15T03:58:52.599Z,65.53
2023-09-15T04:00:55.384Z,65.17
2023-09-15T04:02:57.131Z,65.30
2023-09-15T04:04:59.837Z,65.93
2023-09-15T04:07:02.551Z,65.95
2023-09-15T04:09:08.283Z,65.83
2023-09-15T04:11:11.073Z,65.80
2023-09-15T04:13:15.678Z,65.79
2023-09-15T04:15:20.010Z,65.83
2023-09-15T04:17:22.679Z,65.84
2023-09-15T04:19:25.431Z,65.56
2023-09-15T04:21:28.154Z,65.52
2023-09-15T04:23:31.203Z,65.54
2023-09-15T04:25:32.870Z,65.57
2023-09-15T04:27:35.721Z,65.62
2023-09-15T04:29:51.589Z,65.62
2023-09-15T04:31:55.669Z,65.56
2023-09-15T04:33:58.388Z,65.59
2023-09-15T04:36:01.099Z,65.53
2023-09-15T04:38:03.986Z,65.65
2023-09-15T04:40:09.056Z,65.50
2023-09-15T04:42:13.231Z,65.71
2023-09-15T04:44:15.915Z,65.67
2023-09-15T04:46:20.062Z,65.37
2023-09-15T04:48:24.230Z,65.45
2023-09-15T04:50:26.883Z,65.58
2023-09-15T04:52:29.610Z,65.31
2023-09-15T04:54:32.327Z,65.29
2023-09-15T04:56:34.972Z,65.77
2023-09-15T04:58:37.624Z,65.99
2023-09-15T05:00:40.331Z,65.89
2023-09-15T05:02:46.195Z,66.34
2023-09-15T05:04:50.862Z,66.43
2023-09-15T05:06:53.673Z,66.63
2023-09-15T05:08:58.070Z,66.95
2023-09-15T05:11:00.811Z,67.17
2023-09-15T05:13:06.397Z,67.26
2023-09-15T05:15:10.166Z,67.27
2023-09-15T05:17:12.861Z,67.32
2023-09-15T05:19:15.557Z,67.69
2023-09-15T05:21:19.595Z,67.46
2023-09-15T05:23:22.287Z,67.75
2023-09-15T05:25:25.202Z,67.86
2023-09-15T05:27:27.867Z,67.62
2023-09-15T05:29:30.738Z,67.56
2023-09-15T05:31:33.481Z,67.45
2023-09-15T05:33:36.326Z,67.47
2023-09-15T05:35:39.018Z,67.58
2023-09-15T05:37:43.252Z,67.73
2023-09-15T05:39:45.941Z,68.05
2023-09-15T05:41:48.672Z,68.02
2023-09-15T05:43:51.443Z,68.37
2023-09-15T05:45:54.275Z,68.57
2023-09-15T05:47:57.024Z,68.65
2023-09-15T05:50:02.028Z,68.87
2023-09-15T05:52:05.063Z,69.53
2023-09-15T05:54:09.510Z,69.32
2023-09-15T05:56:12.391Z,69.49
2023-09-15T05:58:15.441Z,69.80
2023-09-15T06:00:17.270Z,70.03
2023-09-15T06:02:21.377Z,70.39
2023-09-15T06:04:24.302Z,70.02
2023-09-15T06:06:27.134Z,69.85
2023-09-15T06:08:30.945Z,70.17
2023-09-15T06:10:37.096Z,69.81
2023-09-15T06:12:39.737Z,69.65
2023-09-15T06:14:42.396Z,69.66
2023-09-15T06:16:45.103Z,69.71
2023-09-15T06:18:47.133Z,69.68
2023-09-15T06:20:50.141Z,69.54
2023-09-15T06:22:52.838Z,69.47
2023-09-15T06:24:55.546Z,69.64
2023-09-15T06:26:59.592Z,69.67
2023-09-15T06:29:02.582Z,69.54
2023-09-15T06:31:05.305Z,69.52
2023-09-15T06:33:08.195Z,69.76
2023-09-15T06:35:14.115Z,69.66
2023-09-15T06:37:16.908Z,69.57
2023-09-15T06:39:19.819Z,69.34
2023-09-15T06:41:22.852Z,69.22
2023-09-15T06:43:25.992Z,69.48
2023-09-15T06:45:28.738Z,69.74
2023-09-15T06:47:31.512Z,69.78
2023-09-15T06:49:34.292Z,69.97
2023-09-15T06:51:36.950Z,70.02
2023-09-15T06:53:39.595Z,69.91
2023-09-15T06:55:42.304Z,69.98
2023-09-15T06:57:43.968Z,70.01
2023-09-15T06:59:48.069Z,69.97
2023-09-15T07:01:50.788Z,69.98
2023-09-15T07:03:53.514Z,70.24
2023-09-15T07:05:56.264Z,70.38
2023-09-15T07:07:58.932Z,70.20
2023-09-15T07:10:01.571Z,70.49
2023-09-15T07:12:05.451Z,70.62
2023-09-15T07:14:08.170Z,70.75
2023-09-15T07:16:12.272Z,70.58
2023-09-15T07:18:15.301Z,70.54
2023-09-15T07:20:17.101Z,70.63
2023-09-15T07:22:19.848Z,70.70
2023-09-15T07:24:22.724Z,70.72
2023-09-15T07:26:27.721Z,70.86
2023-09-15T07:28:30.462Z,70.58
2023-09-15T07:30:33.187Z,70.83
2023-09-15T07:32:37.202Z,70.91
2023-09-15T07:34:39.853Z,70.42
2023-09-15T07:36:42.545Z,70.69
2023-09-15T07:38:45.164Z,71.06
2023-09-15T07:40:47.865Z,70.94
2023-09-15T07:42:51.090Z,71.32
2023-09-15T07:44:53.766Z,71.20
2023-09-15T07:46:56.494Z,71.22
2023-09-15T07:49:00.538Z,71.27
2023-09-15T07:51:02.340Z,71.24
2023-09-15T07:53:05.380Z,71.08
2023-09-15T07:55:08.613Z,71.31
2023-09-15T07:57:11.337Z,71.26
2023-09-15T07:59:15.059Z,71.56
2023-09-15T08:01:17.921Z,71.50
2023-09-15T08:03:20.738Z,71.45
2023-09-15T08:05:25.166Z,71.54
2023-09-15T08:07:27.136Z,71.60
2023-09-15T08:09:29.788Z,71.78
2023-09-15T08:11:35.499Z,71.56
2023-09-15T08:13:38.215Z,71.26
2023-09-15T08:15:41.297Z,71.09
2023-09-15T08:17:44.020Z,71.11
2023-09-15T08:19:46.801Z,71.24
2023-09-15T08:21:50.813Z,71.35
2023-09-15T08:23:56.267Z,71.54
2023-09-15T08:26:02.305Z,71.62
2023-09-15T08:28:07.403Z,71.64
2023-09-15T08:30:10.648Z,70.51
2023-09-15T08:32:15.643Z,71.28
2023-09-15T08:34:18.419Z,71.36
2023-09-15T08:36:21.156Z,71.69
2023-09-15T08:38:26.781Z,72.18
2023-09-15T08:40:38.847Z,72.29
2023-09-15T08:42:41.876Z,72.20
2023-09-15T08:44:45.677Z,72.24
2023-09-15T08:46:49.704Z,72.52
2023-09-15T08:48:54.905Z,72.49
2023-09-15T08:51:00.791Z,72.67
2023-09-15T08:53:05.321Z,72.96
2023-09-15T08:55:10.341Z,72.87
2023-09-15T08:57:13.584Z,72.66
2023-09-15T08:59:17.532Z,72.59
2023-09-15T09:01:20.965Z,72.45
2023-09-15T09:03:24.671Z,72.75
2023-09-15T09:05:28.936Z,72.84
2023-09-15T09:07:32.267Z,72.51
2023-09-15T09:09:35.813Z,72.80
2023-09-15T09:11:39.967Z,72.88
2023-09-15T09:13:44.683Z,72.61
2023-09-15T09:15:49.640Z,72.65
2023-09-15T09:17:52.511Z,72.09
2023-09-15T09:19:55.237Z,72.53
2023-09-15T09:22:03.355Z,72.62
2023-09-15T09:24:07.167Z,72.46
2023-09-15T09:26:12.314Z,72.57
2023-09-15T09:28:18.542Z,72.29
2023-09-15T09:30:21.361Z,72.16
2023-09-15T09:32:24.230Z,71.79
2023-09-15T09:34:45.543Z,71.40
2023-09-15T09:36:50.397Z,71.28
2023-09-15T09:38:53.994Z,71.28
2023-09-15T09:40:57.523Z,71.59
2023-09-15T09:43:00.301Z,71.79
2023-09-15T09:45:05.727Z,71.61
2023-09-15T09:47:09.867Z,71.51
2023-09-15T09:49:14.131Z,71.59
2023-09-15T09:51:18.564Z,71.58
2023-09-15T09:53:29.079Z,71.62
2023-09-15T09:55:32.387Z,71.70
2023-09-15T09:57:35.227Z,71.47
2023-09-15T09:59:38.350Z,71.47
2023-09-15T10:01:42.981Z,71.16
2023-09-15T10:03:45.840Z,71.31
2023-09-15T10:05:50.192Z,71.46
2023-09-15T10:07:55.407Z,71.46
2023-09-15T10:10:00.383Z,71.45
2023-09-15T10:12:03.694Z,71.03
2023-09-15T10:14:07.943Z,70.77
2023-09-15T10:16:10.868Z,70.77
2023-09-15T10:18:17.937Z,70.74
2023-09-15T10:20:22.642Z,70.91
2023-09-15T10:22:26.269Z,70.95
2023-09-15T10:24:28.251Z,70.72
2023-09-15T10:26:33.060Z,70.13
2023-09-15T10:30:42.424Z,70.01
2023-09-15T10:32:44.845Z,69.81
2023-09-15T10:34:50.168Z,69.91
2023-09-15T10:36:53.948Z,69.28
2023-09-15T10:38:58.450Z,69.27
2023-09-15T10:41:04.795Z,69.15
2023-09-15T10:43:08.530Z,69.06
2023-09-15T10:45:12.391Z,69.24
2023-09-15T10:47:18.733Z,69.13
2023-09-15T10:49:23.636Z,68.65
2023-09-15T10:51:28.351Z,68.54
2023-09-15T10:53:31.153Z,68.69
2023-09-15T10:55:32.966Z,68.61
2023-09-15T10:57:37.277Z,68.68
2023-09-15T10:59:40.079Z,68.12
2023-09-15T11:01:44.641Z,67.59
2023-09-15T11:03:47.990Z,67.43
2023-09-15T11:05:53.408Z,67.62
2023-09-15T11:07:58.619Z,67.45
2023-09-15T11:10:01.289Z,67.33
2023-09-15T11:12:05.285Z,67.09
2023-09-15T11:14:07.416Z,67.18
2023-09-15T11:16:11.455Z,67.19
2023-09-15T11:18:16.686Z,67.00
2023-09-15T11:20:18.713Z,66.75
2023-09-15T11:22:21.387Z,66.56
2023-09-15T11:24:25.447Z,66.98
2023-09-15T11:26:28.769Z,67.14
2023-09-15T11:28:32.874Z,67.11
2023-09-15T11:30:35.603Z,66.73
2023-09-15T11:32:39.843Z,66.43
2023-09-15T11:34:42.775Z,66.01
2023-09-15T11:36:46.040Z,66.38
2023-09-15T11:38:49.439Z,65.90
2023-09-15T11:40:53.795Z,64.91
2023-09-15T11:42:57.541Z,64.94
2023-09-15T11:45:00.446Z,64.86
2023-09-15T11:47:05.202Z,64.85
2023-09-15T11:49:08.928Z,64.92
2023-09-15T11:51:11.922Z,64.91
2023-09-15T11:53:14.773Z,64.87
2023-09-15T11:55:22.262Z,64.11
2023-09-15T11:57:26.503Z,63.95
2023-09-15T11:59:32.089Z,63.96
2023-09-15T12:01:34.941Z,64.04
2023-09-15T12:03:39.511Z,63.92
2023-09-15T12:05:42.366Z,64.01
2023-09-15T12:07:45.881Z,63.80
2023-09-15T12:09:49.680Z,63.07
2023-09-15T12:11:53.694Z,62.56
2023-09-15T12:13:59.955Z,62.43
2023-09-15T12:16:02.618Z,62.12
2023-09-15T12:18:06.352Z,62.01
2023-09-15T12:20:09.853Z,59.30
2023-09-15T12:22:12.504Z,59.27
2023-09-15T12:24:16.584Z,58.37
2023-09-15T12:26:19.939Z,57.64
2023-09-15T12:28:23.957Z,56.83
2023-09-15T12:30:28.474Z,56.07
2023-09-15T12:32:33.264Z,55.25
2023-09-15T12:34:36.546Z,54.51
2023-09-15T12:36:39.998Z,54.26
2023-09-15T12:38:42.737Z,53.86
2023-09-15T12:40:46.705Z,53.59
2023-09-15T12:42:49.391Z,53.54
2023-09-15T12:44:52.793Z,53.43
2023-09-15T12:46:57.527Z,53.78
2023-09-15T12:49:00.229Z,53.29
2023-09-15T12:51:03.550Z,53.77
2023-09-15T12:53:06.334Z,54.07
2023-09-15T12:55:09.316Z,54.42
2023-09-15T12:57:12.045Z,54.85
2023-09-15T12:59:15.305Z,54.95
2023-09-15T13:01:18.045Z,55.37
2023-09-15T13:03:23.679Z,54.66
2023-09-15T13:05:25.632Z,54.06
2023-09-15T13:07:30.456Z,52.97
2023-09-15T13:09:33.278Z,51.73
2023-09-15T13:11:34.989Z,50.39
2023-09-15T13:13:38.072Z,50.00
2023-09-15T13:15:40.808Z,49.96
2023-09-15T13:17:42.487Z,50.24
2023-09-15T13:19:46.559Z,51.01
2023-09-15T13:21:49.265Z,51.86
2023-09-15T13:23:52.041Z,50.33
2023-09-15T13:25:54.705Z,46.88
2023-09-15T13:27:57.342Z,46.15
2023-09-15T13:30:00.164Z,45.91
2023-09-15T13:32:03.080Z,46.03
2023-09-15T13:34:05.837Z,46.39
2023-09-15T13:36:10.634Z,46.47
2023-09-15T13:38:13.410Z,46.37
2023-09-15T13:40:16.140Z,45.70
2023-09-15T13:42:20.368Z,45.24
2023-09-15T13:44:23.164Z,45.35
2023-09-15T13:46:25.874Z,45.78
2023-09-15T13:48:28.661Z,45.99
2023-09-15T13:50:30.943Z,46.58
2023-09-15T13:52:35.666Z,46.65
2023-09-15T13:54:38.690Z,46.97
2023-09-15T13:56:41.462Z,47.15
2023-09-15T13:58:44.177Z,47.01
2023-09-15T14:00:57.964Z,46.35
2023-09-15T14:03:00.968Z,46.23
2023-09-15T14:05:05.530Z,46.48
2023-09-15T14:07:08.409Z,46.62
2023-09-15T14:09:13.574Z,46.60
2023-09-15T14:11:16.540Z,46.74
2023-09-15T14:13:20.649Z,47.31
2023-09-15T14:15:23.591Z,46.88
2023-09-15T14:17:27.185Z,46.19
2023-09-15T14:19:29.940Z,46.03
2023-09-15T14:21:35.196Z,46.27
2023-09-15T14:23:38.055Z,46.40
2023-09-15T14:25:42.049Z,46.03
2023-09-15T14:27:44.787Z,46.18
2023-09-15T14:29:47.465Z,46.13
2023-09-15T14:31:50.246Z,46.46
2023-09-15T14:33:52.901Z,46.46
2023-09-15T14:35:55.703Z,46.59
2023-09-15T14:37:58.363Z,46.73
2023-09-15T14:40:01.849Z,47.03
2023-09-15T14:42:06.341Z,47.06
2023-09-15T14:44:10.377Z,47.09
2023-09-15T14:46:13.776Z,47.40
2023-09-15T14:48:17.486Z,47.48
2023-09-15T14:50:20.295Z,47.28
2023-09-15T14:52:22.936Z,46.88
2023-09-15T14:54:26.216Z,47.01
2023-09-15T14:56:29.132Z,47.34
2023-09-15T14:58:33.360Z,47.13
2023-09-15T15:00:36.105Z,47.28
2023-09-15T15:02:38.925Z,47.08
2023-09-15T15:04:42.216Z,46.46
2023-09-15T15:06:45.475Z,46.58
2023-09-15T15:08:48.696Z,47.32
2023-09-15T15:10:51.465Z,47.10
2023-09-15T15:12:55.739Z,47.22
2023-09-15T15:14:59.795Z,47.54
2023-09-15T15:17:02.561Z,47.41
2023-09-15T15:19:06.814Z,47.55
2023-09-15T15:21:10.056Z,47.26
2023-09-15T15:23:12.896Z,47.38
2023-09-15T15:25:15.888Z,47.63
2023-09-15T15:27:20.360Z,47.51
2023-09-15T15:29:23.062Z,47.64
2023-09-15T15:31:26.149Z,47.58
2023-09-15T15:33:29.630Z,47.78
2023-09-15T15:35:33.614Z,47.67
2023-09-15T15:37:36.647Z,48.18
2023-09-15T15:39:39.317Z,48.51
2023-09-15T15:41:42.024Z,48.33
2023-09-15T15:43:44.846Z,48.51
2023-09-15T15:45:56.438Z,48.38
2023-09-15T15:48:02.027Z,48.22
2023-09-15T15:50:06.906Z,48.53
2023-09-15T15:52:08.605Z,48.60
2023-09-15T15:54:11.310Z,48.08
2023-09-15T15:56:14.121Z,48.77
2023-09-15T15:58:19.151Z,48.84
2023-09-15T16:00:21.947Z,49.26
2023-09-15T16:02:24.726Z,49.83
2023-09-15T16:04:28.829Z,49.51
2023-09-15T16:06:31.623Z,49.67
2023-09-15T16:08:34.405Z,49.83
2023-09-15T16:10:37.692Z,49.75
2023-09-15T16:12:40.472Z,50.55
2023-09-15T16:14:45.964Z,50.96
2023-09-15T16:16:48.690Z,50.95
2023-09-15T16:18:51.539Z,51.60
2023-09-15T16:20:55.857Z,51.88
2023-09-15T16:22:58.911Z,52.40
2023-09-15T16:25:01.880Z,52.14
2023-09-15T16:27:04.961Z,52.54
2023-09-15T16:29:07.607Z,52.65
2023-09-15T16:31:10.424Z,53.03
2023-09-15T16:33:14.944Z,53.44
2023-09-15T16:35:17.905Z,53.65
2023-09-15T16:37:22.008Z,53.93
2023-09-15T16:39:27.230Z,53.46
2023-09-15T16:41:31.354Z,53.56
2023-09-15T16:43:36.851Z,53.80
2023-09-15T16:45:39.532Z,54.07
2023-09-15T16:47:42.406Z,54.03
2023-09-15T16:49:45.388Z,54.48
2023-09-15T16:51:48.094Z,54.08
2023-09-15T16:53:52.143Z,54.57
2023-09-15T16:55:54.747Z,54.34
2023-09-15T16:57:57.607Z,54.76
2023-09-15T17:00:01.100Z,54.60
2023-09-15T17:02:04.490Z,54.60
2023-09-15T17:04:09.464Z,55.00
2023-09-15T17:06:12.383Z,55.55
2023-09-15T17:08:14.135Z,55.30
2023-09-15T17:10:18.171Z,55.52
2023-09-15T17:12:21.300Z,56.27
2023-09-15T17:14:24.219Z,56.34
2023-09-15T17:16:27.005Z,56.28
2023-09-15T17:18:30.533Z,56.56
2023-09-15T17:20:33.191Z,56.52
2023-09-15T17:22:36.986Z,56.62
2023-09-15T17:24:41.484Z,56.60
2023-09-15T17:26:46.736Z,57.04
2023-09-15T17:28:49.816Z,56.77
2023-09-15T17:30:52.832Z,57.23
2023-09-15T17:32:55.599Z,57.70
2023-09-15T17:34:58.312Z,57.84
2023-09-15T17:37:00.971Z,58.01
2023-09-15T17:39:04.760Z,58.33
2023-09-15T17:41:07.810Z,58.28
2023-09-15T17:43:11.794Z,58.63
2023-09-15T17:45:15.326Z,59.03
2023-09-15T17:47:17.992Z,59.34
2023-09-15T17:49:21.125Z,59.58
2023-09-15T17:51:24.130Z,59.83
2023-09-15T17:53:26.800Z,59.86
2023-09-15T17:55:29.517Z,60.14
2023-09-15T17:57:31.392Z,59.57
2023-09-15T17:59:36.200Z,59.83
2023-09-15T18:01:38.936Z,59.63
2023-09-15T18:03:45.620Z,59.89
2023-09-15T18:05:48.376Z,59.83
2023-09-15T18:07:51.675Z,59.63
2023-09-15T18:09:54.169Z,59.65
2023-09-15T18:11:57.044Z,59.43
2023-09-15T18:14:00.195Z,59.38
2023-09-15T18:16:04.309Z,59.64
2023-09-15T18:18:07.951Z,59.63
2023-09-15T18:20:10.800Z,59.69
2023-09-15T18:22:13.463Z,59.45
2023-09-15T18:24:16.204Z,59.94
2023-09-15T18:26:18.960Z,59.83
2023-09-15T18:30:25.088Z,60.00
2023-09-15T18:32:29.477Z,60.03
2023-09-15T18:34:32.763Z,59.96
2023-09-15T18:36:35.966Z,60.34
2023-09-15T18:38:38.852Z,60.42
2023-09-15T18:40:41.695Z,60.62
2023-09-15T18:42:44.342Z,60.66
2023-09-15T18:44:47.315Z,60.77
2023-09-15T18:46:50.337Z,60.76
2023-09-15T18:48:55.363Z,60.94
2023-09-15T18:50:58.172Z,60.92
2023-09-15T18:53:01.104Z,61.09
2023-09-15T18:55:04.456Z,61.00
2023-09-15T18:57:09.835Z,61.38
2023-09-15T18:59:13.754Z,61.49
2023-09-15T19:01:16.859Z,61.74
2023-09-15T19:03:21.891Z,62.02
2023-09-15T19:05:25.691Z,62.22
2023-09-15T19:07:28.422Z,62.39
2023-09-15T19:09:31.348Z,62.36
2023-09-15T19:11:34.017Z,62.75
2023-09-15T19:13:43.213Z,62.60
2023-09-15T19:15:46.312Z,62.84
2023-09-15T19:17:48.234Z,62.93
2023-09-15T19:19:50.953Z,62.95
2023-09-15T19:21:55.068Z,63.03
2023-09-15T19:23:58.107Z,63.25
2023-09-15T19:26:02.415Z,63.40
2023-09-15T19:28:06.955Z,63.40
2023-09-15T19:30:10.862Z,63.41
2023-09-15T19:32:13.533Z,63.40
2023-09-15T19:34:16.235Z,63.69
2023-09-15T19:36:19.024Z,63.84
2023-09-15T19:38:23.122Z,63.99
2023-09-15T19:40:25.823Z,63.98
2023-09-15T19:42:29.667Z,64.26
2023-09-15T19:44:33.250Z,64.27
2023-09-15T19:46:37.133Z,64.39
2023-09-15T19:48:40.373Z,64.26
2023-09-15T19:50:43.130Z,64.20
2023-09-15T19:52:45.849Z,64.40
2023-09-15T19:54:50.721Z,64.66
2023-09-15T19:56:54.601Z,64.92
2023-09-15T19:58:57.311Z,65.22
2023-09-15T20:01:00.106Z,64.93
2023-09-15T20:03:04.658Z,64.90
2023-09-15T20:05:07.912Z,64.79
2023-09-15T20:07:10.580Z,65.01
2023-09-15T20:09:12.264Z,65.16
2023-09-15T20:11:16.498Z,65.15
2023-09-15T20:13:21.159Z,65.32
2023-09-15T20:15:23.142Z,65.29
2023-09-15T20:17:28.065Z,65.43
2023-09-15T20:19:31.246Z,65.56
2023-09-15T20:21:34.018Z,65.52
2023-09-15T20:23:36.765Z,65.63
2023-09-15T20:25:39.694Z,65.65
2023-09-15T20:27:46.130Z,65.85
2023-09-15T20:29:48.893Z,65.80
2023-09-15T20:31:51.636Z,65.92
2023-09-15T20:33:54.328Z,65.93
2023-09-15T20:35:58.034Z,66.07
2023-09-15T20:38:00.782Z,66.02
2023-09-15T20:40:03.652Z,66.15
2023-09-15T20:42:06.826Z,66.14
2023-09-15T20:44:10.841Z,66.13
2023-09-15T20:46:13.490Z,66.16
2023-09-15T20:48:16.258Z,66.13
2023-09-15T20:50:18.991Z,66.23
2023-09-15T20:52:20.675Z,66.10
2023-09-15T20:54:23.322Z,66.12
2023-09-15T20:56:26.013Z,66.20
2023-09-15T20:58:27.656Z,66.11
2023-09-15T21:00:31.782Z,66.13
2023-09-15T21:02:35.998Z,66.59
2023-09-15T21:04:38.749Z,66.71
2023-09-15T21:06:42.649Z,66.70
2023-09-15T21:08:45.520Z,66.72
2023-09-15T21:10:49.792Z,66.82
2023-09-15T21:12:53.071Z,66.88
2023-09-15T21:14:56.096Z,66.90
2023-09-15T21:17:00.199Z,66.91
2023-09-15T21:19:02.938Z,66.74
2023-09-15T21:21:05.655Z,66.60
2023-09-15T21:23:07.732Z,66.63
2023-09-15T21:25:10.750Z,66.13
2023-09-15T21:27:13.518Z,66.35
2023-09-15T21:29:16.262Z,66.78
2023-09-15T21:31:19.017Z,66.58
2023-09-15T21:33:23.273Z,66.68
2023-09-15T21:35:25.954Z,66.79
2023-09-15T21:37:28.581Z,66.75
2023-09-15T21:39:31.283Z,66.49
2023-09-15T21:41:34.030Z,66.78
2023-09-15T21:43:37.666Z,66.65
2023-09-15T21:45:40.311Z,66.73
2023-09-15T21:47:42.949Z,66.91
2023-09-15T21:49:46.078Z,67.01
2023-09-15T21:51:48.817Z,67.17
2023-09-15T21:53:51.459Z,67.17
2023-09-15T21:55:55.168Z,67.02
2023-09-15T21:57:57.985Z,67.37
2023-09-15T22:00:00.642Z,67.56
2023-09-15T22:02:03.292Z,67.74
2023-09-15T22:04:06.341Z,67.85
2023-09-15T22:06:09.567Z,67.64
2023-09-15T22:08:12.222Z,67.69
2023-09-15T22:10:15.088Z,67.66
2023-09-15T22:12:17.759Z,67.67
2023-09-15T22:14:20.680Z,67.54
2023-09-15T22:16:23.411Z,67.17
2023-09-15T22:18:26.111Z,67.10
2023-09-15T22:20:28.835Z,67.28
2023-09-15T22:22:32.836Z,67.21
2023-09-15T22:24:35.573Z,67.32
2023-09-15T22:26:38.283Z,67.32
2023-09-15T22:28:41.873Z,67.21
2023-09-15T22:30:44.610Z,67.44
2023-09-15T22:32:48.084Z,67.50
2023-09-15T22:34:50.797Z,68.09
2023-09-15T22:36:53.493Z,68.36
2023-09-15T22:38:57.645Z,68.11
2023-09-15T22:41:16.415Z,67.84
2023-09-15T22:43:21.630Z,67.72
2023-09-15T22:45:27.644Z,67.50
2023-09-15T22:47:31.002Z,67.90
2023-09-15T22:49:33.732Z,67.77
2023-09-15T22:51:36.436Z,67.81
2023-09-15T22:53:39.154Z,67.54
2023-09-15T22:55:44.312Z,67.49
2023-09-15T22:57:46.975Z,67.28
2023-09-15T22:59:50.150Z,67.43
2023-09-15T23:01:52.849Z,67.44
2023-09-15T23:03:55.585Z,67.51
2023-09-15T23:05:58.429Z,67.54
2023-09-15T23:08:00.137Z,67.38
2023-09-15T23:10:02.880Z,67.36
2023-09-15T23:12:10.850Z,67.40
2023-09-15T23:14:13.588Z,67.24
2023-09-15T23:16:16.911Z,67.35
2023-09-15T23:18:19.843Z,67.35
2023-09-15T23:20:22.629Z,67.56
2023-09-15T23:22:25.080Z,67.44
2023-09-15T23:24:27.997Z,67.62
2023-09-15T23:26:30.707Z,67.69
2023-09-15T23:28:34.711Z,67.94
2023-09-15T23:30:37.416Z,67.95
2023-09-15T23:32:40.349Z,67.77
2023-09-15T23:34:43.463Z,67.90
2023-09-15T23:36:47.850Z,68.32
2023-09-15T23:38:50.758Z,68.44
2023-09-15T23:40:53.552Z,68.47
2023-09-15T23:42:56.350Z,68.35
2023-09-15T23:45:00.385Z,68.65
2023-09-15T23:47:03.108Z,68.25
2023-09-15T23:49:05.442Z,68.25
2023-09-15T23:51:11.193Z,68.14
2023-09-15T23:53:13.896Z,67.87
2023-09-15T23:55:16.688Z,67.63
2023-09-15T23:57:20.900Z,67.29
2023-09-15T23:59:24.353Z,67.40
